createdAt,value
2022-09-22T00:02:57.123Z,976.75
2022-09-22T00:08:28.861Z,976.72
2022-09-22T00:14:00.649Z,976.74
2022-09-22T00:19:32.383Z,976.78
2022-09-22T00:25:04.205Z,976.63
2022-09-22T00:30:35.778Z,976.49
2022-09-22T00:36:13.954Z,976.12
2022-09-22T00:41:45.552Z,976.02
2022-09-22T00:47:17.516Z,975.89
2022-09-22T00:52:49.029Z,976.06
2022-09-22T00:58:20.788Z,976.2
2022-09-22T01:03:52.538Z,976.26
2022-09-22T01:09:33.515Z,976.13
2022-09-22T01:14:56.009Z,975.99
2022-09-22T01:20:27.704Z,975.8
2022-09-22T01:20:45.453Z,975.81
2022-09-22T01:26:17.301Z,976.2
2022-09-22T01:31:49.253Z,976.26
2022-09-22T01:37:21.001Z,976.24
2022-09-22T01:42:52.440Z,975.87
2022-09-22T01:48:24.116Z,975.67
2022-09-22T01:53:56.105Z,975.91
2022-09-22T01:59:27.641Z,975.93
2022-09-22T02:04:59.364Z,975.63
2022-09-22T02:10:30.962Z,975.71
2022-09-22T02:16:03.014Z,975.75
2022-09-22T02:21:38.867Z,975.64
2022-09-22T02:27:10.533Z,975.49
2022-09-22T02:32:42.337Z,975.61
2022-09-22T02:38:14.046Z,975.54
2022-09-22T02:43:45.779Z,975.84
2022-09-22T02:49:17.504Z,975.69
2022-09-22T02:54:49.221Z,975.56
2022-09-22T03:00:21.037Z,975.57
2022-09-22T03:05:52.756Z,975.61
2022-09-22T03:11:24.401Z,975.69
2022-09-22T03:16:56.134Z,975.27
2022-09-22T03:22:34.238Z,975.43
2022-09-22T03:28:05.976Z,975.4
2022-09-22T03:33:38.185Z,975.43
2022-09-22T03:39:09.349Z,975.52
2022-09-22T03:44:41.205Z,975.37
2022-09-22T03:50:12.805Z,975.68
2022-09-22T03:55:44.501Z,975.66
2022-09-22T04:01:16.409Z,975.78
2022-09-22T04:06:47.874Z,975.92
2022-09-22T04:12:19.802Z,975.54
2022-09-22T04:17:51.437Z,975.42
2022-09-22T04:23:29.716Z,975.39
2022-09-22T04:29:01.436Z,975.66
2022-09-22T04:34:33.178Z,975.48
2022-09-22T04:40:05.180Z,975.73
2022-09-22T04:45:40.392Z,975.75
2022-09-22T04:51:08.205Z,975.65
2022-09-22T04:56:39.889Z,975.49
2022-09-22T05:02:11.677Z,975.43
2022-09-22T05:07:43.366Z,975.6
2022-09-22T05:13:15.288Z,975.76
2022-09-22T05:18:46.778Z,975.86
2022-09-22T05:24:25.023Z,975.98
2022-09-22T05:29:56.837Z,976.23
2022-09-22T05:35:37.122Z,976.65
2022-09-22T05:41:00.198Z,976.84
2022-09-22T05:46:31.902Z,976.74
2022-09-22T05:52:03.681Z,976.71
2022-09-22T05:57:35.373Z,977.07
2022-09-22T06:03:07.184Z,977.35
2022-09-22T06:08:38.775Z,977.54
2022-09-22T06:14:10.516Z,977.97
2022-09-22T06:19:42.396Z,978.35
2022-09-22T06:25:18.511Z,978.62
2022-09-22T06:30:50.180Z,979.02
2022-09-22T06:36:21.903Z,979.24
2022-09-22T06:41:53.603Z,979.08
2022-09-22T06:47:25.463Z,980.24
2022-09-22T06:52:57.160Z,980.61
2022-09-22T06:58:28.803Z,980.78
2022-09-22T07:04:00.578Z,981.34
2022-09-22T07:09:32.168Z,980.96
2022-09-22T07:15:03.866Z,980.82
2022-09-22T07:20:35.703Z,981.88
2022-09-22T07:26:13.777Z,982.56
2022-09-22T07:31:45.839Z,981.91
2022-09-22T07:37:17.201Z,981.72
2022-09-22T07:42:49.015Z,983.22
2022-09-22T07:48:20.688Z,984.17
2022-09-22T07:53:52.387Z,984.44
2022-09-22T07:59:24.234Z,984.55
2022-09-22T08:04:55.979Z,984.47
2022-09-22T08:10:27.460Z,984.44
2022-09-22T08:15:59.465Z,984.22
2022-09-22T08:21:31.045Z,984.89
2022-09-22T08:27:09.189Z,984.85
2022-09-22T08:32:40.921Z,984.47
2022-09-22T08:38:13.623Z,985.25
2022-09-22T08:43:44.348Z,984.27
2022-09-22T08:49:16.117Z,985.35
2022-09-22T08:54:47.728Z,985.21
2022-09-22T09:00:20.017Z,984.41
2022-09-22T09:05:51.321Z,984.91
2022-09-22T09:16:54.753Z,985.5
2022-09-22T09:22:26.383Z,984.68
2022-09-22T09:28:04.508Z,985.53
2022-09-22T09:33:36.306Z,985.1
2022-09-22T09:39:08.194Z,985.42
2022-09-22T09:44:39.805Z,985.41
2022-09-22T09:50:11.493Z,985.16
2022-09-22T09:55:43.198Z,985.19
2022-09-22T10:01:15.216Z,984.74
2022-09-22T10:06:46.624Z,985.64
2022-09-22T10:12:18.374Z,985.37
2022-09-22T10:17:50.161Z,985.19
2022-09-22T10:23:21.923Z,985.01
2022-09-22T10:28:58.105Z,984.11
2022-09-22T10:34:29.657Z,984.68
2022-09-22T10:40:01.666Z,984.85
2022-09-22T10:45:33.495Z,984.58
2022-09-22T10:51:04.962Z,985.25
2022-09-22T10:56:37.254Z,984.83
2022-09-22T11:02:08.449Z,984.64
2022-09-22T11:07:40.153Z,984.4
2022-09-22T11:13:11.854Z,984.42
2022-09-22T11:18:43.626Z,984.15
2022-09-22T11:24:15.349Z,984.41
2022-09-22T11:29:51.470Z,983.62
2022-09-22T11:35:23.191Z,984.34
2022-09-22T11:40:55.028Z,984.36
2022-09-22T11:46:26.807Z,983.77
2022-09-22T11:51:58.394Z,984.13
2022-09-22T11:57:30.173Z,983.91
2022-09-22T12:03:03.672Z,984.25
2022-09-22T12:08:33.461Z,983.98
2022-09-22T12:14:05.406Z,983.78
2022-09-22T12:19:37.053Z,982.77
2022-09-22T12:25:37.688Z,983.46
2022-09-22T12:30:44.998Z,982.8
2022-09-22T12:36:16.746Z,982.94
2022-09-22T12:41:48.272Z,983.09
2022-09-22T12:47:20.250Z,982.34
2022-09-22T12:52:51.746Z,982.84
2022-09-22T12:58:23.479Z,982.53
2022-09-22T13:03:55.430Z,981.38
2022-09-22T13:09:26.865Z,982.09
2022-09-22T13:14:58.626Z,981.14
2022-09-22T13:20:30.401Z,980.93
2022-09-22T13:26:02.129Z,981.76
2022-09-22T13:31:40.189Z,981.6
2022-09-22T13:37:12.109Z,981.46
2022-09-22T13:42:43.850Z,981.11
2022-09-22T13:48:15.433Z,981.91
2022-09-22T13:53:47.197Z,981.47
2022-09-22T13:59:18.828Z,981.12
2022-09-22T14:04:50.521Z,981.51
2022-09-22T14:10:22.252Z,981.35
2022-09-22T14:15:53.982Z,980.45
2022-09-22T14:21:25.765Z,980.37
2022-09-22T14:27:04.713Z,980.88
2022-09-22T14:32:35.811Z,981.0
2022-09-22T14:38:23.409Z,980.76
2022-09-22T14:43:39.030Z,980.21
2022-09-22T14:49:10.707Z,979.92
2022-09-22T14:54:42.613Z,979.6
2022-09-22T15:00:14.177Z,979.37
2022-09-22T15:05:45.948Z,979.48
2022-09-22T15:11:17.363Z,979.58
2022-09-22T15:16:49.371Z,979.6
2022-09-22T15:22:20.878Z,979.2
2022-09-22T15:27:52.592Z,979.8
2022-09-22T15:33:28.782Z,978.75
2022-09-22T15:39:00.731Z,979.05
2022-09-22T15:44:32.343Z,979.09
2022-09-22T15:50:04.165Z,978.64
2022-09-22T15:55:35.817Z,978.47
2022-09-22T16:01:07.683Z,978.22
2022-09-22T16:06:39.421Z,978.17
2022-09-22T16:12:11.167Z,977.69
2022-09-22T16:17:42.749Z,977.69
2022-09-22T16:23:14.529Z,977.86
2022-09-22T16:28:46.173Z,977.47
2022-09-22T16:34:22.317Z,977.23
2022-09-22T16:39:53.968Z,976.9
2022-09-22T16:45:25.681Z,976.94
2022-09-22T16:50:57.636Z,976.78
2022-09-22T16:56:29.148Z,976.52
2022-09-22T17:02:00.970Z,975.91
2022-09-22T17:07:32.664Z,976.16
2022-09-22T17:13:04.347Z,975.8
2022-09-22T17:18:36.063Z,975.68
2022-09-22T17:24:07.745Z,975.73
2022-09-22T17:29:39.716Z,975.09
2022-09-22T17:35:15.849Z,975.4
2022-09-22T17:40:47.618Z,975.38
2022-09-22T17:46:19.276Z,975.03
2022-09-22T17:51:51.010Z,975.11
2022-09-22T17:57:22.538Z,975.16
2022-09-22T18:02:54.869Z,974.95
2022-09-22T18:08:26.034Z,974.7
2022-09-22T18:13:57.656Z,974.44
2022-09-22T18:19:29.412Z,974.57
2022-09-22T18:25:01.101Z,974.44
2022-09-22T18:30:32.958Z,974.6
2022-09-22T18:36:10.941Z,974.74
2022-09-22T18:41:42.750Z,974.26
2022-09-22T18:47:14.565Z,974.42
2022-09-22T18:52:46.148Z,974.61
2022-09-22T18:58:17.759Z,974.65
2022-09-22T19:03:49.563Z,974.81
2022-09-22T19:09:21.475Z,974.62
2022-09-22T19:14:53.027Z,974.4
2022-09-22T19:20:25.095Z,974.43
2022-09-22T19:25:56.504Z,974.29
2022-09-22T19:31:28.434Z,974.12
2022-09-22T19:37:04.267Z,974.08
2022-09-22T19:42:40.949Z,973.74
2022-09-22T19:48:07.835Z,974.1
2022-09-22T19:53:39.465Z,974.2
2022-09-22T19:59:11.216Z,974.21
2022-09-22T20:04:42.927Z,974.06
2022-09-22T20:10:14.709Z,973.92
2022-09-22T20:15:46.571Z,973.92
2022-09-22T20:21:18.161Z,973.75
2022-09-22T20:26:49.868Z,973.63
2022-09-22T20:32:21.561Z,973.69
2022-09-22T20:37:57.672Z,973.68
2022-09-22T20:43:29.436Z,973.58
2022-09-22T20:49:01.199Z,973.57
2022-09-22T20:54:32.860Z,973.33
2022-09-22T21:00:04.557Z,973.52
2022-09-22T21:05:36.347Z,973.7
2022-09-22T21:11:08.099Z,973.93
2022-09-22T21:16:39.753Z,973.87
2022-09-22T21:22:11.500Z,973.96
2022-09-22T21:27:43.425Z,973.95
2022-09-22T21:33:14.888Z,974.31
2022-09-22T21:38:51.082Z,974.14
2022-09-22T21:44:22.781Z,974.03
2022-09-22T21:49:54.642Z,973.65
2022-09-22T21:55:26.226Z,974.0
2022-09-22T22:00:58.045Z,974.24
2022-09-22T22:06:29.591Z,974.0
2022-09-22T22:12:01.359Z,974.09
2022-09-22T22:17:33.122Z,973.82
2022-09-22T22:23:04.806Z,974.07
2022-09-22T22:28:36.532Z,973.73
2022-09-22T22:34:08.446Z,973.76
2022-09-22T22:39:46.474Z,974.03
2022-09-22T22:45:18.349Z,973.81
2022-09-22T22:50:49.839Z,973.71
2022-09-22T22:56:21.537Z,973.67
2022-09-22T23:01:53.377Z,973.78
2022-09-22T23:07:25.021Z,973.6
2022-09-22T23:12:56.825Z,973.69
2022-09-22T23:18:28.536Z,973.48
2022-09-22T23:24:00.196Z,973.8
2022-09-22T23:29:31.918Z,973.61
2022-09-22T23:35:03.625Z,973.58
2022-09-22T23:40:39.912Z,973.85
2022-09-22T23:46:11.794Z,973.95
2022-09-22T23:51:43.261Z,973.6
2022-09-22T23:57:14.871Z,973.28
